Home > Products > Valid Products > TAF

000
FTUS42 KRAH 061720
TAFRWI
TAF
KRWI 061720Z 0618/0718 VRB05KT P6SM VCSH BKN035
      TEMPO 0618/0622 31010KT 5SM -SHRA OVC025
     FM070000 VRB05KT P6SM SCT050=



000
FTUS42 KRAH 061720
TAFFAY
TAF
KFAY 061720Z 0618/0718 31010KT P6SM VCSH BKN035
      TEMPO 0618/0622 31012G18KT 5SM -SHRA BKN015 OVC035
     FM070000 28005KT P6SM BKN050=



000
FTUS42 KRAH 061720
TAFFAY
TAF
KFAY 061720Z 0618/0718 31010KT P6SM VCSH BKN035
      TEMPO 0618/0622 31012G18KT 5SM -SHRA BKN015 OVC035
     FM070000 28005KT P6SM BKN050=



000
FTUS42 KRAH 061720
TAFRDU
TAF
KRDU 061720Z 0618/0718 VRB05KT P6SM VCSH BKN040
      TEMPO 0618/0622 31010KT 5SM -SHRA OVC025
     FM070000 28005KT P6SM BKN050=



000
FTUS42 KRAH 061720
TAFGSO
TAF
KGSO 061720Z 0618/0718 34010KT P6SM SCT025 SCT050
      TEMPO 0618/0622 33012G20KT
     FM070000 30005KT P6SM BKN050=



000
FTUS42 KRAH 061720
TAFRDU
TAF
KRDU 061720Z 0618/0718 VRB05KT P6SM VCSH BKN040
      TEMPO 0618/0622 31010KT 5SM -SHRA OVC025
     FM070000 28005KT P6SM BKN050=



000
FTUS42 KRAH 061720
TAFINT
TAF
KINT 061720Z 0618/0718 33012KT P6SM SCT040
      TEMPO 0618/0622 33013G21KT
     FM070000 30005KT P6SM BKN050=



000
FTUS42 KRAH 061720
TAFRWI
TAF
KRWI 061720Z 0618/0718 VRB05KT P6SM VCSH BKN035
      TEMPO 0618/0622 31010KT 5SM -SHRA OVC025
     FM070000 VRB05KT P6SM SCT050=



000
FTUS42 KRAH 061720
TAFGSO
TAF
KGSO 061720Z 0618/0718 34010KT P6SM SCT025 SCT050
      TEMPO 0618/0622 33012G20KT
     FM070000 30005KT P6SM BKN050=



000
FTUS42 KRAH 061720
TAFINT
TAF
KINT 061720Z 0618/0718 33012KT P6SM SCT040
      TEMPO 0618/0622 33013G21KT
     FM070000 30005KT P6SM BKN050=



000
FTUS42 KRAH 061657 AAB
TAFRDU
TAF AMD
KRDU 061657Z 0617/0712 36010KT P6SM VCSH SCT035 BKN050
      TEMPO 0617/0621 5SM -SHRA OVC025
     FM070000 28005KT P6SM BKN050=



000
FTUS42 KRAH 061657 AAB
TAFRDU
TAF AMD
KRDU 061657Z 0617/0712 36010KT P6SM VCSH SCT035 BKN050
      TEMPO 0617/0621 5SM -SHRA OVC025
     FM070000 28005KT P6SM BKN050=



000
FTUS42 KRAH 061656 AAC
TAFRWI
TAF AMD
KRWI 061656Z 0617/0712 VRB05KT P6SM VCSH SCT025 BKN035
      TEMPO 0617/0621 5SM -SHRA OVC020
     FM070000 28005KT P6SM BKN050=



000
FTUS42 KRAH 061656 AAC
TAFRWI
TAF AMD
KRWI 061656Z 0617/0712 VRB05KT P6SM VCSH SCT025 BKN035
      TEMPO 0617/0621 5SM -SHRA OVC020
     FM070000 28005KT P6SM BKN050=



000
FTUS42 KRAH 061547 AAB
TAFGSO
TAF AMD
KGSO 061547Z 0616/0712 34010KT P6SM VCSH SCT025 SCT050
      TEMPO 0616/0620 33012G20KT 5SM -SHRA BKN025
     FM070000 30005KT P6SM BKN050=



000
FTUS42 KRAH 061547 AAB
TAFGSO
TAF AMD
KGSO 061547Z 0616/0712 34010KT P6SM VCSH SCT025 SCT050
      TEMPO 0616/0620 33012G20KT 5SM -SHRA BKN025
     FM070000 30005KT P6SM BKN050=



000
FTUS42 KRAH 061541 AAB
TAFRWI
TAF AMD
KRWI 061541Z 0616/0712 VRB05KT P6SM VCSH BKN025
      TEMPO 0616/0620 5SM -SHRA BKN015 OVC035
     FM062000 VRB05KT P6SM VCSH BKN035
      TEMPO 0620/0623 5SM -SHRA OVC025
     FM070000 VRB05KT P6SM SCT050=



000
FTUS42 KRAH 061538 AAA
TAFFAY
TAF AMD
KFAY 061538Z 0616/0712 31010KT P6SM VCSH BKN035
      TEMPO 0616/0620 31012G18KT 5SM -SHRA BKN015 OVC035
     FM070000 28005KT P6SM BKN050=



000
FTUS42 KRAH 061537 AAA
TAFGSO
TAF AMD
KGSO 061537Z 0616/0712 34010KT P6SM SCT025 SCT050
      TEMPO 0616/0619 33012G20KT
     FM070000 30005KT P6SM BKN050=



000
FTUS42 KRAH 061536 AAA
TAFINT
TAF AMD
KINT 061536Z 0616/0712 33012KT P6SM SCT040
      TEMPO 0616/0619 33013G21KT
     FM070000 30005KT P6SM BKN050=



000
FTUS42 KRAH 061534 AAA
TAFRDU
TAF AMD
KRDU 061534Z 0616/0712 VRB05KT P6SM VCSH SCT015 BKN040
      TEMPO 0616/0620 5SM -SHRA BKN015 OVC035
     FM070000 28005KT P6SM BKN050=



000
FTUS42 KRAH 061319 AAA
TAFRWI
TAF AMD
KRWI 061319Z 0613/0712 32006KT 6SM -RA BKN008 OVC012
      TEMPO 0613/0617 SCT006 BKN015
     FM061700 31010KT P6SM VCSH BKN035
      TEMPO 0620/0623 4SM -TSRA BR BKN035CB
     FM070300 28005KT P6SM BKN050=



000
FTUS42 KRAH 061319 AAA
TAFRWI
TAF AMD
KRWI 061319Z 0613/0712 32006KT 6SM -RA BKN008 OVC012
      TEMPO 0613/0617 SCT006 BKN015
     FM061700 31010KT P6SM VCSH BKN035
      TEMPO 0620/0623 4SM -TSRA BR BKN035CB
     FM070300 28005KT P6SM BKN050=



000
FTUS42 KRAH 061120
TAFRWI
TAF
KRWI 061120Z 0612/0712 33006KT P6SM -RA BKN010 OVC050
     FM061600 31007KT P6SM VCSH OVC015
     FM061900 31010KT 6SM -SHRA BR BKN035
      TEMPO 0620/0623 4SM -TSRA BR BKN035CB
     FM070300 28005KT P6SM BKN050=



000
FTUS42 KRAH 061120
TAFFAY
TAF
KFAY 061120Z 0612/0712 30008KT P6SM -RA BKN012 OVC050
     FM061400 30007KT P6SM VCSH BKN015 OVC050
     FM061800 30009KT P6SM VCSH BKN035
      TEMPO 0619/0622 P6SM -TSRA BKN035CB
     FM070000 28005KT P6SM BKN050=



000
FTUS42 KRAH 061120
TAFGSO
TAF
KGSO 061120Z 0612/0712 31004KT P6SM -RA FEW005 SCT028 OVC050
     FM061500 32010KT P6SM BKN040
     FM061900 31010G15KT P6SM VCSH BKN050
      TEMPO 0619/0622 5SM -SHRA BR
     FM062200 28006KT P6SM BKN090=



000
FTUS42 KRAH 061120
TAFRWI
TAF
KRWI 061120Z 0612/0712 33006KT P6SM -RA BKN010 OVC050
     FM061600 31007KT P6SM VCSH OVC015
     FM061900 31010KT 6SM -SHRA BR BKN035
      TEMPO 0620/0623 4SM -TSRA BR BKN035CB
     FM070300 28005KT P6SM BKN050=



000
FTUS42 KRAH 061120
TAFINT
TAF
KINT 061120Z 0612/0712 31005KT P6SM -RA OVC045
     FM061500 32010KT P6SM BKN040
     FM061900 31010G15KT P6SM VCSH BKN050
      TEMPO 0619/0622 5SM -SHRA BR
     FM062200 28006KT P6SM BKN090=



000
FTUS42 KRAH 061120
TAFRDU
TAF
KRDU 061120Z 0612/0712 27004KT 6SM -RA BR FEW003 BKN007 OVC060
     FM061500 31007KT P6SM VCSH BKN015 OVC060
     FM061800 31010KT P6SM VCSH BKN035
      TEMPO 0619/0622 P6SM -TSRA BKN035CB
     FM070000 28005KT P6SM BKN050=



000
FTUS42 KRAH 061120
TAFFAY
TAF
KFAY 061120Z 0612/0712 30008KT P6SM -RA BKN012 OVC050
     FM061400 30007KT P6SM VCSH BKN015 OVC050
     FM061800 30009KT P6SM VCSH BKN035
      TEMPO 0619/0622 P6SM -TSRA BKN035CB
     FM070000 28005KT P6SM BKN050=



000
FTUS42 KRAH 060912 AAA
TAFRDU
TAF AMD
KRDU 060912Z 0609/0706 28004KT P6SM -RA FEW003 BKN060 OVC070
      TEMPO 0609/0612 6SM -RA OVC006
     FM061200 28003KT 6SM -RA BR OVC008
     FM061400 31007KT P6SM VCSH OVC015
     FM061800 31010KT P6SM VCSH BKN035
      TEMPO 0619/0622 P6SM -TSRA BKN035CB
     FM070000 28005KT P6SM BKN050=



000
FTUS42 KRAH 060912 AAA
TAFRDU
TAF AMD
KRDU 060912Z 0609/0706 28004KT P6SM -RA FEW003 BKN060 OVC070
      TEMPO 0609/0612 6SM -RA OVC006
     FM061200 28003KT 6SM -RA BR OVC008
     FM061400 31007KT P6SM VCSH OVC015
     FM061800 31010KT P6SM VCSH BKN035
      TEMPO 0619/0622 P6SM -TSRA BKN035CB
     FM070000 28005KT P6SM BKN050=



000
FTUS42 KRAH 060912 AAA
TAFGSO
TAF AMD
KGSO 060912Z 0609/0706 00000KT 4SM -RA BR SCT023 BKN030 OVC060
     FM061500 32010KT P6SM BKN040
     FM061900 31010G15KT P6SM VCSH BKN050
      TEMPO 0619/0622 5SM -SHRA BR
     FM062200 28006KT P6SM BKN090=



000
FTUS42 KRAH 060522
TAFGSO
TAF
KGSO 060522Z 0606/0706 29004KT P6SM -RA FEW005 SCT045 OVC060
     FM061500 32010KT P6SM BKN040
     FM061900 31010G15KT P6SM VCSH BKN050
      TEMPO 0619/0622 5SM -SHRA BR
     FM062200 28006KT P6SM BKN090=



000
FTUS42 KRAH 060522
TAFINT
TAF
KINT 060522Z 0606/0706 28003KT P6SM -RA OVC040
     FM061500 32010KT P6SM BKN040
     FM061900 31010G15KT P6SM VCSH BKN050
      TEMPO 0619/0622 5SM -SHRA BR
     FM062200 28006KT P6SM BKN090=



000
FTUS42 KRAH 060522
TAFRWI
TAF
KRWI 060522Z 0606/0706 03006KT 4SM -RA BR SCT005 OVC015
      TEMPO 0606/0610 6SM -RA OVC006
     FM061000 28003KT P6SM -RA OVC006
     FM061600 31007KT P6SM VCSH OVC015
     FM061900 31010KT 6SM -SHRA BR BKN035
      TEMPO 0620/0623 4SM -TSRA BR BKN035CB
     FM070300 28005KT P6SM BKN050=



000
FTUS42 KRAH 060522
TAFRDU
TAF
KRDU 060522Z 0606/0706 29003KT 3SM -RA BR BKN005 OVC015
      TEMPO 0606/0610 6SM -RA OVC006
     FM061000 28003KT 6SM -RA BR OVC006
     FM061400 31007KT P6SM VCSH OVC015
     FM061800 31010KT P6SM VCSH BKN035
      TEMPO 0619/0622 P6SM -TSRA BKN035CB
     FM070000 28005KT P6SM BKN050=



000
FTUS42 KRAH 060522
TAFFAY
TAF
KFAY 060522Z 0606/0706 28008KT P6SM OVC014
      TEMPO 0606/0610 6SM -RA OVC009
     FM061000 28003KT P6SM -RA OVC008
     FM061400 30007KT P6SM VCSH OVC015
     FM061800 30009KT P6SM VCSH BKN035
      TEMPO 0619/0622 P6SM -TSRA BKN035CB
     FM070000 28005KT P6SM BKN050=



000
FTUS42 KRAH 060522
TAFINT
TAF
KINT 060522Z 0606/0706 28003KT P6SM -RA OVC040
     FM061500 32010KT P6SM BKN040
     FM061900 31010G15KT P6SM VCSH BKN050
      TEMPO 0619/0622 5SM -SHRA BR
     FM062200 28006KT P6SM BKN090=



000
FTUS42 KRAH 060522
TAFGSO
TAF
KGSO 060522Z 0606/0706 29004KT P6SM -RA FEW005 SCT045 OVC060
     FM061500 32010KT P6SM BKN040
     FM061900 31010G15KT P6SM VCSH BKN050
      TEMPO 0619/0622 5SM -SHRA BR
     FM062200 28006KT P6SM BKN090=



000
FTUS42 KRAH 060522
TAFRDU
TAF
KRDU 060522Z 0606/0706 29003KT 3SM -RA BR BKN005 OVC015
      TEMPO 0606/0610 6SM -RA OVC006
     FM061000 28003KT 6SM -RA BR OVC006
     FM061400 31007KT P6SM VCSH OVC015
     FM061800 31010KT P6SM VCSH BKN035
      TEMPO 0619/0622 P6SM -TSRA BKN035CB
     FM070000 28005KT P6SM BKN050=



000
FTUS42 KRAH 060522
TAFFAY
TAF
KFAY 060522Z 0606/0706 28008KT P6SM OVC014
      TEMPO 0606/0610 6SM -RA OVC009
     FM061000 28003KT P6SM -RA OVC008
     FM061400 30007KT P6SM VCSH OVC015
     FM061800 30009KT P6SM VCSH BKN035
      TEMPO 0619/0622 P6SM -TSRA BKN035CB
     FM070000 28005KT P6SM BKN050=



000
FTUS42 KRAH 060522
TAFRWI
TAF
KRWI 060522Z 0606/0706 03006KT 4SM -RA BR SCT005 OVC015
      TEMPO 0606/0610 6SM -RA OVC006
     FM061000 28003KT P6SM -RA OVC006
     FM061600 31007KT P6SM VCSH OVC015
     FM061900 31010KT 6SM -SHRA BR BKN035
      TEMPO 0620/0623 4SM -TSRA BR BKN035CB
     FM070300 28005KT P6SM BKN050=



000
FTUS42 KRAH 060325 AAD
TAFRWI
TAF AMD
KRWI 060325Z 0603/0624 33004KT 3SM -RA BR OVC005
      TEMPO 0603/0607 1SM -RA BR SCT005 OVC012
     FM061500 34007KT P6SM OVC015
     FM062100 30007KT P6SM OVC050
      TEMPO 0621/0624 P6SM -TSRA BKN050CB=



000
FTUS42 KRAH 060255 AAC
TAFRWI
TAF AMD
KRWI 060255Z 0603/0624 33004KT 3SM -RA BR OVC005
      TEMPO 0609/0612 2SM -RA OVC004
     FM061500 34007KT P6SM OVC015
     FM062100 30007KT P6SM OVC050
      TEMPO 0621/0624 P6SM -TSRA BKN050CB=



000
FTUS42 KRAH 060255 AAC
TAFRWI
TAF AMD
KRWI 060255Z 0603/0624 33004KT 3SM -RA BR OVC005
      TEMPO 0609/0612 2SM -RA OVC004
     FM061500 34007KT P6SM OVC015
     FM062100 30007KT P6SM OVC050
      TEMPO 0621/0624 P6SM -TSRA BKN050CB=



000
FTUS42 KRAH 060233 AAB
TAFRDU
TAF AMD
KRDU 060233Z 0603/0624 29004KT 6SM -RA BR OVC007
      TEMPO 0609/0612 4SM -RA OVC004
     FM061500 34007KT P6SM OVC015
     FM061800 30007KT P6SM OVC050
      TEMPO 0618/0621 P6SM -TSRA BKN050CB=



000
FTUS42 KRAH 060233 AAB
TAFRDU
TAF AMD
KRDU 060233Z 0603/0624 29004KT 6SM -RA BR OVC007
      TEMPO 0609/0612 4SM -RA OVC004
     FM061500 34007KT P6SM OVC015
     FM061800 30007KT P6SM OVC050
      TEMPO 0618/0621 P6SM -TSRA BKN050CB=



000
FTUS42 KRAH 060233 AAB
TAFGSO
TAF AMD
KGSO 060233Z 0603/0624 31008KT 4SM RA BR SCT012 SCT040 OVC050
      TEMPO 0603/0606 3SM -RA OVC015
     FM060600 32004KT P6SM OVC050
     FM061500 33008KT P6SM BKN100
     FM061800 32010KT P6SM SCT250 PROB30 0618/0621 P6SM -TSRA
      BKN050CB=



000
FTUS42 KRAH 060233 AAB
TAFGSO
TAF AMD
KGSO 060233Z 0603/0624 31008KT 4SM RA BR SCT012 SCT040 OVC050
      TEMPO 0603/0606 3SM -RA OVC015
     FM060600 32004KT P6SM OVC050
     FM061500 33008KT P6SM BKN100
     FM061800 32010KT P6SM SCT250 PROB30 0618/0621 P6SM -TSRA
      BKN050CB=



000
FTUS42 KRAH 060115 AAA
TAFGSO
TAF AMD
KGSO 060115Z 0601/0624 34009KT 6SM -RA OVC050
      TEMPO 0603/0606 3SM -RA OVC015
     FM060600 32004KT P6SM OVC050
     FM061500 33008KT P6SM BKN100
     FM061800 32010KT P6SM SCT250 PROB30 0618/0621 P6SM -TSRA
      BKN050CB=



000
FTUS42 KRAH 060114 AAB
TAFRWI
TAF AMD
KRWI 060114Z 0601/0624 33004KT 3SM -RA BR OVC005
      TEMPO 0609/0612 4SM -RA OVC004
     FM061500 34007KT P6SM OVC015
     FM062100 30007KT P6SM OVC050
      TEMPO 0621/0624 P6SM -TSRA BKN050CB=



000
FTUS42 KRAH 060053 AAA
TAFRWI
TAF AMD
KRWI 060053Z 0601/0624 33008KT 3SM -SHRA OVC010
     FM060300 33004KT 3SM -RA BR OVC007
      TEMPO 0609/0612 4SM -RA OVC004
     FM061500 34007KT P6SM OVC015
     FM062100 30007KT P6SM OVC050
      TEMPO 0621/0624 P6SM -TSRA BKN050CB=



000
FTUS42 KRAH 060053 AAA
TAFRWI
TAF AMD
KRWI 060053Z 0601/0624 33008KT 3SM -SHRA OVC010
     FM060300 33004KT 3SM -RA BR OVC007
      TEMPO 0609/0612 4SM -RA OVC004
     FM061500 34007KT P6SM OVC015
     FM062100 30007KT P6SM OVC050
      TEMPO 0621/0624 P6SM -TSRA BKN050CB=



000
FTUS42 KRAH 060052 AAA
TAFFAY
TAF AMD
KFAY 060052Z 0601/0624 30008KT 5SM -RA BR OVC015
      TEMPO 0609/0612 4SM -RA OVC007
     FM061500 33007KT P6SM OVC050
     FM061800 30008KT P6SM BKN100 PROB30 0618/0624 P6SM TS BKN050CB=



000
FTUS42 KRAH 060052 AAA
TAFRDU
TAF AMD
KRDU 060052Z 0601/0624 33004KT 5SM -RA BR OVC007
      TEMPO 0609/0612 4SM -RA OVC004
     FM061500 34007KT P6SM OVC015
     FM061800 30007KT P6SM OVC050
      TEMPO 0618/0621 P6SM -TSRA BKN050CB=



000
FTUS42 KRAH 060052 AAA
TAFFAY
TAF AMD
KFAY 060052Z 0601/0624 30008KT 5SM -RA BR OVC015
      TEMPO 0609/0612 4SM -RA OVC007
     FM061500 33007KT P6SM OVC050
     FM061800 30008KT P6SM BKN100 PROB30 0618/0624 P6SM TS BKN050CB=



000
FTUS42 KRAH 060052 AAA
TAFRDU
TAF AMD
KRDU 060052Z 0601/0624 33004KT 5SM -RA BR OVC007
      TEMPO 0609/0612 4SM -RA OVC004
     FM061500 34007KT P6SM OVC015
     FM061800 30007KT P6SM OVC050
      TEMPO 0618/0621 P6SM -TSRA BKN050CB=



000
FTUS42 KRAH 060037 AAA
TAFINT
TAF AMD
KINT 060037Z 0601/0624 34009KT 6SM -RA OVC050
      TEMPO 0603/0606 4SM -RA OVC015
     FM060600 32004KT P6SM OVC050
     FM061500 33008KT P6SM BKN100
     FM061800 32010KT P6SM SCT250 PROB30 0618/0621 P6SM -TSRA
      BKN050CB=



000
FTUS42 KRAH 060037 AAA
TAFINT
TAF AMD
KINT 060037Z 0601/0624 34009KT 6SM -RA OVC050
      TEMPO 0603/0606 4SM -RA OVC015
     FM060600 32004KT P6SM OVC050
     FM061500 33008KT P6SM BKN100
     FM061800 32010KT P6SM SCT250 PROB30 0618/0621 P6SM -TSRA
      BKN050CB=



000
FTUS42 KRAH 052334
TAFINT
TAF
KINT 052334Z 0600/0624 34009KT P6SM -RA OVC050
      TEMPO 0603/0606 P6SM -RA OVC015
     FM060600 32004KT P6SM OVC050
     FM061500 33008KT P6SM BKN100
     FM061800 32010KT P6SM SCT250 PROB30 0618/0621 P6SM -TSRA
      BKN050CB=



000
FTUS42 KRAH 052334
TAFFAY
TAF
KFAY 052334Z 0600/0624 32011KT P6SM OVC050
     FM060500 30008KT 5SM -RA BR OVC015
      TEMPO 0609/0612 4SM -RA OVC007
     FM061500 33007KT P6SM OVC050
     FM061800 30008KT P6SM BKN100 PROB30 0618/0624 P6SM TS BKN050CB=



000
FTUS42 KRAH 052334
TAFRDU
TAF
KRDU 052334Z 0600/0624 33010KT 6SM -SHRA BKN012 OVC025
     FM060300 33004KT 3SM -RA BR OVC007
      TEMPO 0609/0612 4SM -RA OVC004
     FM061500 34007KT P6SM OVC015
     FM061800 30007KT P6SM OVC050
      TEMPO 0618/0621 P6SM -TSRA BKN050CB=



000
FTUS42 KRAH 052334
TAFRWI
TAF
KRWI 052334Z 0600/0624 33008KT 6SM -SHRA BKN012 OVC025
     FM060300 33004KT 3SM -RA BR OVC007
      TEMPO 0609/0612 4SM -RA OVC004
     FM061500 34007KT P6SM OVC015
     FM062100 30007KT P6SM OVC050
      TEMPO 0621/0624 P6SM -TSRA BKN050CB=



000
FTUS42 KRAH 052334
TAFGSO
TAF
KGSO 052334Z 0600/0624 34009KT P6SM -RA OVC050
      TEMPO 0603/0606 P6SM -RA OVC015
     FM060600 32004KT P6SM OVC050
     FM061500 33008KT P6SM BKN100
     FM061800 32010KT P6SM SCT250 PROB30 0618/0621 P6SM -TSRA
      BKN050CB=



000
FTUS42 KRAH 052334
TAFGSO
TAF
KGSO 052334Z 0600/0624 34009KT P6SM -RA OVC050
      TEMPO 0603/0606 P6SM -RA OVC015
     FM060600 32004KT P6SM OVC050
     FM061500 33008KT P6SM BKN100
     FM061800 32010KT P6SM SCT250 PROB30 0618/0621 P6SM -TSRA
      BKN050CB=



000
FTUS42 KRAH 052334
TAFINT
TAF
KINT 052334Z 0600/0624 34009KT P6SM -RA OVC050
      TEMPO 0603/0606 P6SM -RA OVC015
     FM060600 32004KT P6SM OVC050
     FM061500 33008KT P6SM BKN100
     FM061800 32010KT P6SM SCT250 PROB30 0618/0621 P6SM -TSRA
      BKN050CB=



000
FTUS42 KRAH 052334
TAFRDU
TAF
KRDU 052334Z 0600/0624 33010KT 6SM -SHRA BKN012 OVC025
     FM060300 33004KT 3SM -RA BR OVC007
      TEMPO 0609/0612 4SM -RA OVC004
     FM061500 34007KT P6SM OVC015
     FM061800 30007KT P6SM OVC050
      TEMPO 0618/0621 P6SM -TSRA BKN050CB=



000
FTUS42 KRAH 052334
TAFRWI
TAF
KRWI 052334Z 0600/0624 33008KT 6SM -SHRA BKN012 OVC025
     FM060300 33004KT 3SM -RA BR OVC007
      TEMPO 0609/0612 4SM -RA OVC004
     FM061500 34007KT P6SM OVC015
     FM062100 30007KT P6SM OVC050
      TEMPO 0621/0624 P6SM -TSRA BKN050CB=



000
FTUS42 KRAH 052334
TAFFAY
TAF
KFAY 052334Z 0600/0624 32011KT P6SM OVC050
     FM060500 30008KT 5SM -RA BR OVC015
      TEMPO 0609/0612 4SM -RA OVC007
     FM061500 33007KT P6SM OVC050
     FM061800 30008KT P6SM BKN100 PROB30 0618/0624 P6SM TS BKN050CB=



000
FTUS42 KRAH 052014 AAB
TAFINT
TAF AMD
KINT 052014Z 0520/0618 34010G18KT P6SM FEW015 OVC050
     FM052200 33008KT 4SM -SHRA BKN015 OVC025
     FM060600 34006KT 2SM -SHRA BR SCT005 OVC015
     FM061600 35010G17KT P6SM SCT015 BKN040=



000
FTUS42 KRAH 052013 AAB
TAFGSO
TAF AMD
KGSO 052013Z 0520/0618 34010KT 6SM -RA FEW009 SCT025 OVC050
     FM052200 33008KT 4SM -SHRA BKN015 OVC025
     FM060600 34006KT 2SM -SHRA BR SCT005 OVC012
     FM061600 35010G17KT P6SM SCT015 BKN040=



000
FTUS42 KRAH 052013 AAC
TAFRDU
TAF AMD
KRDU 052013Z 0520/0618 33010KT 6SM -RA FEW009 SCT015 OVC050
     FM052300 32008KT 5SM -SHRA BKN012 OVC025
     FM060600 33006KT 2SM -SHRA BR SCT002 OVC005
     FM061700 33010G16KT P6SM SCT015 BKN040=



000
FTUS42 KRAH 052012 AAB
TAFFAY
TAF AMD
KFAY 052012Z 0520/0618 32010G20KT P6SM SCT025 BKN050
      TEMPO 0521/0523 2SM SHRA BKN025
     FM052300 31009KT P6SM SCT010 OVC018
     FM060700 31006KT 4SM -SHRA BR SCT007 OVC012
     FM061500 33010G16KT P6SM SCT015 BKN040=



000
FTUS42 KRAH 052012 AAB
TAFRWI
TAF AMD
KRWI 052012Z 0520/0618 03008KT 3SM -RA SCT015 OVC040
      TEMPO 0520/0522 2SM +SHRA BKN007
     FM052300 35008KT 5SM -SHRA SCT005 OVC017
     FM060600 32006KT 2SM -SHRA BR SCT002 OVC005
     FM061700 33010G16KT P6SM SCT015 BKN040=



000
FTUS42 KRAH 052008 AAB
TAFRDU
TAF AMD
KRDU 052008Z 0520/0618 33010KT 6SM -RA FEW009 SCT015 OVC050
     FM052300 32008KT 4SM -SHRA BKN012 OVC025
     FM060600 33006KT 2SM -SHRA BR SCT002 OVC005
     FM061700 33010G16KT P6SM SCT015 BKN040=



000
FTUS42 KRAH 052008 AAB
TAFRDU
TAF AMD
KRDU 052008Z 0520/0618 33010KT 6SM -RA FEW009 SCT015 OVC050
     FM052300 32008KT 4SM -SHRA BKN012 OVC025
     FM060600 33006KT 2SM -SHRA BR SCT002 OVC005
     FM061700 33010G16KT P6SM SCT015 BKN040=



000
FTUS42 KRAH 051854 AAA
TAFINT
TAF AMD
KINT 051854Z 0519/0618 34010G18KT P6SM FEW015 OVC050
     FM052300 33008KT 4SM -SHRA BKN015 OVC025
     FM060600 34006KT 2SM -SHRA BR SCT005 OVC015
     FM061600 35010G17KT P6SM SCT015 BKN040=



000
FTUS42 KRAH 051854 AAA
TAFINT
TAF AMD
KINT 051854Z 0519/0618 34010G18KT P6SM FEW015 OVC050
     FM052300 33008KT 4SM -SHRA BKN015 OVC025
     FM060600 34006KT 2SM -SHRA BR SCT005 OVC015
     FM061600 35010G17KT P6SM SCT015 BKN040=



000
FTUS42 KRAH 051759 AAA
TAFRDU
TAF AMD
KRDU 051759Z 0518/0618 33010KT 6SM -RA FEW009 BKN015 OVC050
     FM052300 32008KT 4SM -SHRA BKN012 OVC025
     FM060600 33006KT 2SM -SHRA BR SCT002 OVC005
     FM061700 33010G16KT P6SM SCT015 BKN040=



000
FTUS42 KRAH 051759 AAA
TAFGSO
TAF AMD
KGSO 051759Z 0518/0618 34010G18KT 6SM -RA FEW009 SCT025 OVC050
     FM052300 33008KT 4SM -SHRA BKN015 OVC025
     FM060600 34006KT 2SM -SHRA BR SCT005 OVC012
     FM061600 35010G17KT P6SM SCT015 BKN040=



000
FTUS42 KRAH 051759 AAA
TAFGSO
TAF AMD
KGSO 051759Z 0518/0618 34010G18KT 6SM -RA FEW009 SCT025 OVC050
     FM052300 33008KT 4SM -SHRA BKN015 OVC025
     FM060600 34006KT 2SM -SHRA BR SCT005 OVC012
     FM061600 35010G17KT P6SM SCT015 BKN040=



000
FTUS42 KRAH 051759 AAA
TAFRDU
TAF AMD
KRDU 051759Z 0518/0618 33010KT 6SM -RA FEW009 BKN015 OVC050
     FM052300 32008KT 4SM -SHRA BKN012 OVC025
     FM060600 33006KT 2SM -SHRA BR SCT002 OVC005
     FM061700 33010G16KT P6SM SCT015 BKN040=



000
FTUS42 KRAH 051747 AAA
TAFFAY
TAF AMD
KFAY 051747Z 0518/0618 33010G18KT P6SM SCT025 BKN050
      TEMPO 0518/0522 2SM SHRA BKN025
     FM052300 31008KT P6SM SCT010 OVC018
     FM060700 31006KT 4SM -SHRA BR SCT007 OVC012
     FM061500 33010G16KT P6SM SCT015 BKN040=



000
FTUS42 KRAH 051747 AAA
TAFFAY
TAF AMD
KFAY 051747Z 0518/0618 33010G18KT P6SM SCT025 BKN050
      TEMPO 0518/0522 2SM SHRA BKN025
     FM052300 31008KT P6SM SCT010 OVC018
     FM060700 31006KT 4SM -SHRA BR SCT007 OVC012
     FM061500 33010G16KT P6SM SCT015 BKN040=



000
FTUS42 KRAH 051746 AAA
TAFRWI
TAF AMD
KRWI 051746Z 0518/0618 03008KT 4SM -RA SCT007 OVC015
      TEMPO 0518/0522 2SM +SHRA BKN007
     FM052300 35008KT 3SM -SHRA SCT005 OVC012
     FM060600 32006KT 2SM -SHRA BR SCT002 OVC005
     FM061700 33010G16KT P6SM SCT015 BKN040=



000
FTUS42 KRAH 051741
TAFFAY
TAF
KFAY 051741Z 0518/0618 33010G18KT P6SM SCT025 BKN050
      TEMPO 0518/0522 2SM SHRA BKN025
     FM052300 31008KT 5SM -SHRA SCT005 OVC012
     FM060600 31006KT 3SM -SHRA BR SCT002 OVC005
     FM061700 33010G16KT P6SM SCT015 BKN040=



000
FTUS42 KRAH 051741
TAFRDU
TAF
KRDU 051741Z 0518/0618 35010KT 3SM -RA FEW009 BKN025 OVC050
     FM052300 32008KT 3SM -SHRA BKN012 OVC025
     FM060600 33006KT 2SM -SHRA BR SCT002 OVC005
     FM061700 33010G16KT P6SM SCT015 BKN040=



000
FTUS42 KRAH 051741
TAFRWI
TAF
KRWI 051741Z 0518/0618 03008KT 4SM -RA SCT007 OVC015
     FM052300 35008KT 3SM -SHRA SCT005 OVC012
     FM060600 32006KT 2SM -SHRA BR SCT002 OVC005
     FM061700 33010G16KT P6SM SCT015 BKN040=



000
FTUS42 KRAH 051741
TAFINT
TAF
KINT 051741Z 0518/0618 34010G18KT P6SM FEW009 BKN025 OVC050
     FM052300 33008KT 4SM -SHRA BKN015 OVC025
     FM060600 34006KT 2SM -SHRA BR SCT005 OVC015
     FM061600 35010G17KT P6SM SCT015 BKN040=



000
FTUS42 KRAH 051741
TAFGSO
TAF
KGSO 051741Z 0518/0618 36010G18KT 5SM -RA FEW009 BKN025 OVC050
     FM052300 33008KT 4SM -SHRA BKN015 OVC025
     FM060600 34006KT 2SM -SHRA BR SCT005 OVC012
     FM061600 35010G17KT P6SM SCT015 BKN040=



000
FTUS42 KRAH 051741
TAFFAY
TAF
KFAY 051741Z 0518/0618 33010G18KT P6SM SCT025 BKN050
      TEMPO 0518/0522 2SM SHRA BKN025
     FM052300 31008KT 5SM -SHRA SCT005 OVC012
     FM060600 31006KT 3SM -SHRA BR SCT002 OVC005
     FM061700 33010G16KT P6SM SCT015 BKN040=



000
FTUS42 KRAH 051741
TAFRWI
TAF
KRWI 051741Z 0518/0618 03008KT 4SM -RA SCT007 OVC015
     FM052300 35008KT 3SM -SHRA SCT005 OVC012
     FM060600 32006KT 2SM -SHRA BR SCT002 OVC005
     FM061700 33010G16KT P6SM SCT015 BKN040=



000
FTUS42 KRAH 051741
TAFRDU
TAF
KRDU 051741Z 0518/0618 35010KT 3SM -RA FEW009 BKN025 OVC050
     FM052300 32008KT 3SM -SHRA BKN012 OVC025
     FM060600 33006KT 2SM -SHRA BR SCT002 OVC005
     FM061700 33010G16KT P6SM SCT015 BKN040=



000
FTUS42 KRAH 051741
TAFGSO
TAF
KGSO 051741Z 0518/0618 36010G18KT 5SM -RA FEW009 BKN025 OVC050
     FM052300 33008KT 4SM -SHRA BKN015 OVC025
     FM060600 34006KT 2SM -SHRA BR SCT005 OVC012
     FM061600 35010G17KT P6SM SCT015 BKN040=



000
FTUS42 KRAH 051741
TAFINT
TAF
KINT 051741Z 0518/0618 34010G18KT P6SM FEW009 BKN025 OVC050
     FM052300 33008KT 4SM -SHRA BKN015 OVC025
     FM060600 34006KT 2SM -SHRA BR SCT005 OVC015
     FM061600 35010G17KT P6SM SCT015 BKN040=



000
FTUS42 KRAH 051714 AAC
TAFRDU
TAF AMD
KRDU 051714Z 0517/0612 01006KT 6SM -SHRA BR OVC040
      TEMPO 0517/0519 2SM -SHRA OVC025
     FM051900 36005KT 6SM -SHRA BR OVC035
     FM052100 33010KT 3SM SHRA BR OVC012=



000
FTUS42 KRAH 051714 AAC
TAFRDU
TAF AMD
KRDU 051714Z 0517/0612 01006KT 6SM -SHRA BR OVC040
      TEMPO 0517/0519 2SM -SHRA OVC025
     FM051900 36005KT 6SM -SHRA BR OVC035
     FM052100 33010KT 3SM SHRA BR OVC012=



000
FTUS42 KRAH 051602 AAB
TAFRWI
TAF AMD
KRWI 051602Z 0516/0612 36008KT 6SM -SHRA OVC012
      TEMPO 0516/0518 3SM -TSRA OVC007CB
     FM052200 35010KT 3SM SHRA BR OVC009=



000
FTUS42 KRAH 051602 AAB
TAFRWI
TAF AMD
KRWI 051602Z 0516/0612 36008KT 6SM -SHRA OVC012
      TEMPO 0516/0518 3SM -TSRA OVC007CB
     FM052200 35010KT 3SM SHRA BR OVC009=



000
FTUS42 KRAH 051548 AAA
TAFINT
TAF AMD
KINT 051548Z 0516/0612 33007KT P6SM -RA FEW035 BKN045 OVC060
     FM052300 33010KT P6SM BKN015 OVC030=



000
FTUS42 KRAH 051548 AAA
TAFINT
TAF AMD
KINT 051548Z 0516/0612 33007KT P6SM -RA FEW035 BKN045 OVC060
     FM052300 33010KT P6SM BKN015 OVC030=



000
FTUS42 KRAH 051506 AAB
TAFFAY
TAF AMD
KFAY 051506Z 0515/0612 01006KT P6SM VCSH OVC015
      TEMPO 0515/0517 3SM -TSRA OVC015CB
     FM051700 36005KT 6SM -SHRA BR OVC035
     FM052200 33010KT 3SM SHRA BR OVC012=



000
FTUS42 KRAH 051400 AAA
TAFGSO
TAF AMD
KGSO 051400Z 0514/0612 33012KT 5SM -SHRA BR BKN009 OVC035
     FM051600 33012KT 5SM -SHRA BR SCT020 OVC035
     FM052300 32010KT 6SM BR VCSH BKN009 OVC030=



000
FTUS42 KRAH 051400 AAA
TAFGSO
TAF AMD
KGSO 051400Z 0514/0612 33012KT 5SM -SHRA BR BKN009 OVC035
     FM051600 33012KT 5SM -SHRA BR SCT020 OVC035
     FM052300 32010KT 6SM BR VCSH BKN009 OVC030=



000
FTUS42 KRAH 051356 AAA
TAFRWI
TAF AMD
KRWI 051356Z 0514/0612 36008KT 6SM -SHRA OVC015
      TEMPO 0514/0516 3SM -TSRA OVC015CB
     FM052200 35010KT 3SM SHRA BR OVC008=



000
FTUS42 KRAH 051354 AAB
TAFRDU
TAF AMD
KRDU 051354Z 0514/0612 01006KT 6SM -SHRA BR OVC025
      TEMPO 0514/0517 3SM -TSRA OVC025CB
     FM051700 36005KT 6SM -SHRA BR OVC035
     FM052100 33010KT 3SM SHRA BR OVC012=



000
FTUS42 KRAH 051354 AAB
TAFRDU
TAF AMD
KRDU 051354Z 0514/0612 01006KT 6SM -SHRA BR OVC025
      TEMPO 0514/0517 3SM -TSRA OVC025CB
     FM051700 36005KT 6SM -SHRA BR OVC035
     FM052100 33010KT 3SM SHRA BR OVC012=



000
FTUS42 KRAH 051344 AAA
TAFFAY
TAF AMD
KFAY 051344Z 0514/0612 01006KT P6SM VCSH OVC015
     FM051700 36005KT 6SM -SHRA BR OVC035
     FM052200 33010KT 3SM SHRA BR OVC012=



000
FTUS42 KRAH 051344 AAA
TAFFAY
TAF AMD
KFAY 051344Z 0514/0612 01006KT P6SM VCSH OVC015
     FM051700 36005KT 6SM -SHRA BR OVC035
     FM052200 33010KT 3SM SHRA BR OVC012=



000
FTUS42 KRAH 051331 AAA
TAFRDU
TAF AMD
KRDU 051331Z 0514/0612 01006KT 6SM -SHRA BR OVC015
     FM051700 36005KT 6SM -SHRA BR OVC035
     FM052100 33010KT 3SM SHRA BR OVC012=



000
FTUS42 KRAH 051120
TAFFAY
TAF
KFAY 051120Z 0512/0612 28003KT P6SM SKC
      TEMPO 0512/0514 5SM BR BKN005 BKN080
     FM051400 01006KT P6SM VCSH OVC015
     FM051700 36005KT 6SM -SHRA BR OVC035
     FM052200 33010KT 3SM SHRA BR OVC012=



000
FTUS42 KRAH 051120
TAFGSO
TAF
KGSO 051120Z 0512/0612 34008KT P6SM -RA FEW010 BKN070 OVC080
     FM051400 33012KT 5SM -SHRA BR SCT020 OVC035
     FM052300 32010KT 6SM BR VCSH BKN009 OVC030=



000
FTUS42 KRAH 051120
TAFRWI
TAF
KRWI 051120Z 0512/0612 04003KT P6SM OVC010
     FM051400 36008KT 4SM -SHRA BR OVC015
     FM052200 35010KT 3SM SHRA BR OVC008=



000
FTUS42 KRAH 051120
TAFINT
TAF
KINT 051120Z 0512/0612 33006KT P6SM -RA FEW035 BKN045 OVC060
     FM051400 33012KT 5SM -SHRA BR SCT020 OVC035
     FM052300 32010KT 6SM BR VCSH BKN009 OVC030=



000
FTUS42 KRAH 051120
TAFRDU
TAF
KRDU 051120Z 0512/0612 07004KT 2SM BR OVC003
     FM051400 01006KT 6SM -SHRA BR OVC015
     FM051700 36005KT 6SM -SHRA BR OVC035
     FM052100 33010KT 3SM SHRA BR OVC012=



000
FTUS42 KRAH 051120
TAFFAY
TAF
KFAY 051120Z 0512/0612 28003KT P6SM SKC
      TEMPO 0512/0514 5SM BR BKN005 BKN080
     FM051400 01006KT P6SM VCSH OVC015
     FM051700 36005KT 6SM -SHRA BR OVC035
     FM052200 33010KT 3SM SHRA BR OVC012=



000
FTUS42 KRAH 051120
TAFGSO
TAF
KGSO 051120Z 0512/0612 34008KT P6SM -RA FEW010 BKN070 OVC080
     FM051400 33012KT 5SM -SHRA BR SCT020 OVC035
     FM052300 32010KT 6SM BR VCSH BKN009 OVC030=



000
FTUS42 KRAH 051120
TAFRWI
TAF
KRWI 051120Z 0512/0612 04003KT P6SM OVC010
     FM051400 36008KT 4SM -SHRA BR OVC015
     FM052200 35010KT 3SM SHRA BR OVC008=



000
FTUS42 KRAH 051120
TAFINT
TAF
KINT 051120Z 0512/0612 33006KT P6SM -RA FEW035 BKN045 OVC060
     FM051400 33012KT 5SM -SHRA BR SCT020 OVC035
     FM052300 32010KT 6SM BR VCSH BKN009 OVC030=



000
FTUS42 KRAH 051120
TAFRDU
TAF
KRDU 051120Z 0512/0612 07004KT 2SM BR OVC003
     FM051400 01006KT 6SM -SHRA BR OVC015
     FM051700 36005KT 6SM -SHRA BR OVC035
     FM052100 33010KT 3SM SHRA BR OVC012=



000
FTUS42 KRAH 050939 AAC
TAFRDU
TAF AMD
KRDU 050939Z 0510/0606 00000KT 5SM BR OVC003
      TEMPO 0510/0512 1/2SM FG OVC001
     FM051400 01006KT 6SM -SHRA BR OVC015
     FM051700 36005KT 6SM -SHRA BR OVC035
     FM052100 33010KT 3SM SHRA BR OVC012=



000
FTUS42 KRAH 050907 AAB
TAFRDU
TAF AMD
KRDU 050907Z 0509/0606 00000KT 5SM BR OVC003
     FM051400 01006KT 6SM -SHRA BR OVC015
     FM051700 36005KT 6SM -SHRA BR OVC035
     FM052100 33010KT 3SM SHRA BR OVC012=



000
FTUS42 KRAH 050907 AAB
TAFRDU
TAF AMD
KRDU 050907Z 0509/0606 00000KT 5SM BR OVC003
     FM051400 01006KT 6SM -SHRA BR OVC015
     FM051700 36005KT 6SM -SHRA BR OVC035
     FM052100 33010KT 3SM SHRA BR OVC012=



000
FTUS42 KRAH 050853 AAA
TAFRDU
TAF AMD
KRDU 050853Z 0509/0606 01003KT P6SM FEW002 SCT080
     FM051100 03003KT 5SM BR OVC005
     FM051400 01006KT 6SM -SHRA BR OVC015
     FM051700 36005KT 6SM -SHRA BR OVC035
     FM052100 33010KT 3SM SHRA BR OVC012=



000
FTUS42 KRAH 050853 AAA
TAFINT
TAF AMD
KINT 050853Z 0509/0606 35010KT P6SM VCSH BKN070 OVC110
     FM051200 34011KT 5SM -SHRA BR SCT012 OVC050
     FM051400 33012KT 5SM -SHRA BR SCT020 OVC035
     FM052300 32010KT 6SM BR VCSH BKN009 OVC030=



000
FTUS42 KRAH 050853 AAA
TAFGSO
TAF AMD
KGSO 050853Z 0509/0606 34004KT P6SM VCSH OVC070
     FM051200 34011KT 5SM -SHRA BR SCT012 OVC050
     FM051400 33012KT 5SM -SHRA BR SCT020 OVC035
     FM052300 32010KT 6SM BR VCSH BKN009 OVC030=



000
FTUS42 KRAH 050838 AAA
TAFFAY
TAF AMD
KFAY 050838Z 0509/0606 VRB03KT P6SM SCT005 BKN080
      TEMPO 0510/0513 5SM BR BKN005 BKN080
     FM051300 01006KT P6SM VCSH OVC015
     FM051700 36005KT 6SM -SHRA BR OVC035
     FM052200 33010KT 3SM SHRA BR OVC012=



000
FTUS42 KRAH 050838 AAB
TAFRWI
TAF AMD
KRWI 050838Z 0509/0606 06005KT P6SM BKN006 OVC012
     FM051000 02004KT 6SM BR OVC006
     FM051400 36008KT 4SM -SHRA BR OVC015
     FM052200 35010KT 3SM SHRA BR OVC008=



000
FTUS42 KRAH 050706 AAA
TAFRWI
TAF AMD
KRWI 050706Z 0507/0606 03003KT P6SM SCT007 OVC090
     FM050800 04003KT P6SM BKN005 OVC090
     FM051000 02004KT 6SM BR OVC005
     FM051400 36008KT 4SM -SHRA BR OVC015
     FM052200 35010KT 3SM SHRA BR OVC008=



000
FTUS42 KRAH 050531
TAFRDU
TAF
KRDU 050531Z 0506/0606 04003KT P6SM FEW100
     FM050800 03003KT 6SM BR SCT005 OVC090
     FM051000 03003KT 5SM BR OVC005
     FM051400 01006KT 6SM -SHRA BR OVC015
     FM051700 36005KT 6SM -SHRA BR OVC035
     FM052100 33010KT 3SM SHRA BR OVC012=



000
FTUS42 KRAH 050531
TAFRWI
TAF
KRWI 050531Z 0506/0606 03003KT P6SM SCT007 OVC090
     FM050700 04003KT P6SM BKN005 OVC090
     FM051000 02004KT 6SM BR OVC005
     FM051400 36008KT 4SM -SHRA BR OVC015
     FM052200 35010KT 3SM SHRA BR OVC008=



000
FTUS42 KRAH 050531
TAFINT
TAF
KINT 050531Z 0506/0606 34006KT P6SM BKN070
     FM050900 34008KT P6SM VCSH BKN008 OVC040
     FM051200 34011KT 5SM -SHRA BR SCT012 OVC050
     FM051400 33012KT 5SM -SHRA BR SCT020 OVC035
     FM052300 32010KT 6SM BR VCSH BKN009 OVC030=



000
FTUS42 KRAH 050531
TAFGSO
TAF
KGSO 050531Z 0506/0606 34006KT P6SM BKN070
     FM050900 34008KT P6SM VCSH BKN008 OVC040
     FM051200 34011KT 5SM -SHRA BR SCT012 OVC050
     FM051400 33012KT 5SM -SHRA BR SCT020 OVC035
     FM052300 32010KT 6SM BR VCSH BKN009 OVC030=



000
FTUS42 KRAH 050531
TAFFAY
TAF
KFAY 050531Z 0506/0606 00000KT P6SM FEW080 SCT090
     FM050800 03003KT 6SM BR BKN005 OVC090
     FM051000 03003KT 5SM BR OVC005
     FM051500 01006KT 6SM -SHRA BR OVC015
     FM051800 36005KT 6SM -SHRA BR OVC035
     FM052200 33010KT 3SM SHRA BR OVC012=



000
FTUS42 KRAH 050531
TAFGSO
TAF
KGSO 050531Z 0506/0606 34006KT P6SM BKN070
     FM050900 34008KT P6SM VCSH BKN008 OVC040
     FM051200 34011KT 5SM -SHRA BR SCT012 OVC050
     FM051400 33012KT 5SM -SHRA BR SCT020 OVC035
     FM052300 32010KT 6SM BR VCSH BKN009 OVC030=



000
FTUS42 KRAH 050531
TAFINT
TAF
KINT 050531Z 0506/0606 34006KT P6SM BKN070
     FM050900 34008KT P6SM VCSH BKN008 OVC040
     FM051200 34011KT 5SM -SHRA BR SCT012 OVC050
     FM051400 33012KT 5SM -SHRA BR SCT020 OVC035
     FM052300 32010KT 6SM BR VCSH BKN009 OVC030=



000
FTUS42 KRAH 050531
TAFFAY
TAF
KFAY 050531Z 0506/0606 00000KT P6SM FEW080 SCT090
     FM050800 03003KT 6SM BR BKN005 OVC090
     FM051000 03003KT 5SM BR OVC005
     FM051500 01006KT 6SM -SHRA BR OVC015
     FM051800 36005KT 6SM -SHRA BR OVC035
     FM052200 33010KT 3SM SHRA BR OVC012=



000
FTUS42 KRAH 050531
TAFRDU
TAF
KRDU 050531Z 0506/0606 04003KT P6SM FEW100
     FM050800 03003KT 6SM BR SCT005 OVC090
     FM051000 03003KT 5SM BR OVC005
     FM051400 01006KT 6SM -SHRA BR OVC015
     FM051700 36005KT 6SM -SHRA BR OVC035
     FM052100 33010KT 3SM SHRA BR OVC012=



000
FTUS42 KRAH 050531
TAFRWI
TAF
KRWI 050531Z 0506/0606 03003KT P6SM SCT007 OVC090
     FM050700 04003KT P6SM BKN005 OVC090
     FM051000 02004KT 6SM BR OVC005
     FM051400 36008KT 4SM -SHRA BR OVC015
     FM052200 35010KT 3SM SHRA BR OVC008=



000
FTUS42 KRAH 050319 AAA
TAFRDU
TAF AMD
KRDU 050319Z 0503/0524 VRB05KT P6SM SCT070
     FM050900 36006KT P6SM BKN035 OVC060
     FM051800 33006KT 5SM -SHRA BR OVC025=



000
FTUS42 KRAH 050319 AAA
TAFGSO
TAF AMD
KGSO 050319Z 0503/0524 32004KT P6SM SKC
     FM050900 34008KT P6SM VCSH OVC060
     FM051500 34012KT 5SM -SHRA BR BKN025=



000
FTUS42 KRAH 042334
TAFFAY
TAF
KFAY 042334Z 0500/0524 VRB05KT P6SM BKN250
     FM051200 31010KT P6SM BKN040
     FM051500 30013KT P6SM VCSH SCT025 BKN060
     FM051800 30012G22KT P6SM OVC060=



000
FTUS42 KRAH 042334
TAFRDU
TAF
KRDU 042334Z 0500/0524 VRB05KT P6SM SCT070
     FM050900 36006KT P6SM BKN035 OVC060
     FM051800 33006KT 5SM -SHRA BR OVC025=



000
FTUS42 KRAH 042334
TAFRWI
TAF
KRWI 042334Z 0500/0524 VRB05KT P6SM BKN080
     FM050900 03008KT P6SM BKN025
     FM051300 03008KT 5SM BR OVC007
     FM051800 35010KT 3SM -SHRA BR OVC008=



000
FTUS42 KRAH 042334
TAFGSO
TAF
KGSO 042334Z 0500/0524 VRB05KT P6SM SCT080
     FM050900 34008KT P6SM VCSH OVC060
     FM051500 34012KT 5SM -SHRA BR BKN025=



000
FTUS42 KRAH 042334
TAFINT
TAF
KINT 042334Z 0500/0524 VRB05KT P6SM SCT080
     FM050900 34008KT P6SM VCSH BKN035 OVC060
     FM051500 34012KT P6SM VCSH BKN040=



000
FTUS42 KRAH 041720
TAFINT
TAF
KINT 041720Z 0418/0518 35005KT P6SM BKN050
     FM050600 VRB05KT P6SM VCSH BKN035 OVC060
      TEMPO 0508/0512 3SM SHRA OVC035=



000
FTUS42 KRAH 041720
TAFFAY
TAF
KFAY 041720Z 0418/0518 36005KT P6SM BKN050
     FM051300 VRB05KT P6SM VCSH BKN035 OVC060
      TEMPO 0514/0518 2SM SHRA BKN025=



000
FTUS42 KRAH 041720
TAFRWI
TAF
KRWI 041720Z 0418/0518 35005KT P6SM BKN050
     FM051000 VRB05KT P6SM VCSH BKN035 OVC060
      TEMPO 0512/0516 2SM SHRA BKN025=



000
FTUS42 KRAH 041720
TAFGSO
TAF
KGSO 041720Z 0418/0518 35005KT P6SM BKN050
     FM050600 VRB05KT P6SM VCSH BKN035 OVC060
      TEMPO 0508/0512 3SM SHRA OVC035=



000
FTUS42 KRAH 041720
TAFRDU
TAF
KRDU 041720Z 0418/0518 36005KT P6SM BKN050
     FM051300 VRB05KT P6SM VCSH BKN035 OVC060
      TEMPO 0514/0518 2SM SHRA BKN025=



000
FTUS42 KRAH 041500 AAC
TAFRDU
TAF AMD
KRDU 041500Z 0415/0512 35003KT P6SM BKN015
      TEMPO 0415/0416 BKN025
     FM041600 36005KT P6SM SCT035 BKN100
     FM042000 VRB05KT P6SM SCT050=



000
FTUS42 KRAH 041500 AAC
TAFRDU
TAF AMD
KRDU 041500Z 0415/0512 35003KT P6SM BKN015
      TEMPO 0415/0416 BKN025
     FM041600 36005KT P6SM SCT035 BKN100
     FM042000 VRB05KT P6SM SCT050=



000
FTUS42 KRAH 041459 AAA
TAFRWI
TAF AMD
KRWI 041459Z 0415/0512 35004KT P6SM VCSH OVC015
      TEMPO 0415/0418 SCT025 BKN035
     FM041800 34005KT P6SM VCSH SCT035
      TEMPO 0418/0422 5SM -SHRA BKN025=



000
FTUS42 KRAH 041459 AAA
TAFRWI
TAF AMD
KRWI 041459Z 0415/0512 35004KT P6SM VCSH OVC015
      TEMPO 0415/0418 SCT025 BKN035
     FM041800 34005KT P6SM VCSH SCT035
      TEMPO 0418/0422 5SM -SHRA BKN025=



000
FTUS42 KRAH 041400 AAB
TAFRDU
TAF AMD
KRDU 041400Z 0414/0512 35003KT P6SM BKN010
      TEMPO 0414/0415 BKN025
     FM041500 36005KT P6SM SCT050 BKN100
     FM042000 VRB05KT P6SM VCSH SCT050=



000
FTUS42 KRAH 041400 AAB
TAFRDU
TAF AMD
KRDU 041400Z 0414/0512 35003KT P6SM BKN010
      TEMPO 0414/0415 BKN025
     FM041500 36005KT P6SM SCT050 BKN100
     FM042000 VRB05KT P6SM VCSH SCT050=



000
FTUS42 KRAH 041347 AAA
TAFRDU
TAF AMD
KRDU 041347Z 0414/0512 35003KT P6SM OVC007
      TEMPO 0414/0415 BKN015
     FM041500 34004KT P6SM BKN015
     FM041600 34004KT P6SM VCSH SCT030 BKN070=



000
FTUS42 KRAH 041347 AAA
TAFRDU
TAF AMD
KRDU 041347Z 0414/0512 35003KT P6SM OVC007
      TEMPO 0414/0415 BKN015
     FM041500 34004KT P6SM BKN015
     FM041600 34004KT P6SM VCSH SCT030 BKN070=



000
FTUS42 KRAH 041128
TAFRDU
TAF
KRDU 041128Z 0412/0512 35003KT P6SM BKN008 BKN070
      TEMPO 0412/0413 VRB02KT OVC006
     FM041300 34004KT P6SM BKN012
      TEMPO 0413/0414 SCT012 BKN070
     FM041400 34004KT P6SM VCSH BKN070=



000
FTUS42 KRAH 041128
TAFGSO
TAF
KGSO 041128Z 0412/0512 35004KT P6SM BKN070
     FM041800 24007KT P6SM VCSH BKN045 BKN070
     FM050900 34003KT P6SM VCSH BKN035 OVC060
      TEMPO 0509/0512 4SM -SHRA BKN025 OVC040=



000
FTUS42 KRAH 041128
TAFINT
TAF
KINT 041128Z 0412/0512 35004KT P6SM BKN070
     FM041800 24007KT P6SM VCSH BKN045 BKN070
     FM050900 34003KT P6SM VCSH BKN035 OVC060
      TEMPO 0509/0512 4SM -SHRA BKN025 OVC040=



000
FTUS42 KRAH 041128
TAFRWI
TAF
KRWI 041128Z 0412/0512 35004KT 6SM BR VCSH BKN011
      TEMPO 0412/0413 VRB02KT 4SM -SHRA OVC006
     FM041600 34005KT P6SM VCSH SCT035 BKN070
      TEMPO 0416/0417 BKN025=



000
FTUS42 KRAH 041128
TAFFAY
TAF
KFAY 041128Z 0412/0512 35004KT P6SM VCSH BKN080
      TEMPO 0412/0413 4SM -SHRA SCT050 BKN080
     FM041300 34005KT P6SM VCSH SCT050 BKN080=



000
FTUS42 KRAH 041128
TAFINT
TAF
KINT 041128Z 0412/0512 35004KT P6SM BKN070
     FM041800 24007KT P6SM VCSH BKN045 BKN070
     FM050900 34003KT P6SM VCSH BKN035 OVC060
      TEMPO 0509/0512 4SM -SHRA BKN025 OVC040=



000
FTUS42 KRAH 041128
TAFRDU
TAF
KRDU 041128Z 0412/0512 35003KT P6SM BKN008 BKN070
      TEMPO 0412/0413 VRB02KT OVC006
     FM041300 34004KT P6SM BKN012
      TEMPO 0413/0414 SCT012 BKN070
     FM041400 34004KT P6SM VCSH BKN070=



000
FTUS42 KRAH 041128
TAFGSO
TAF
KGSO 041128Z 0412/0512 35004KT P6SM BKN070
     FM041800 24007KT P6SM VCSH BKN045 BKN070
     FM050900 34003KT P6SM VCSH BKN035 OVC060
      TEMPO 0509/0512 4SM -SHRA BKN025 OVC040=



000
FTUS42 KRAH 041128
TAFRWI
TAF
KRWI 041128Z 0412/0512 35004KT 6SM BR VCSH BKN011
      TEMPO 0412/0413 VRB02KT 4SM -SHRA OVC006
     FM041600 34005KT P6SM VCSH SCT035 BKN070
      TEMPO 0416/0417 BKN025=



000
FTUS42 KRAH 041128
TAFFAY
TAF
KFAY 041128Z 0412/0512 35004KT P6SM VCSH BKN080
      TEMPO 0412/0413 4SM -SHRA SCT050 BKN080
     FM041300 34005KT P6SM VCSH SCT050 BKN080=



000
FTUS42 KRAH 041116 AAA
TAFFAY
TAF AMD
KFAY 041116Z 0411/0506 35004KT P6SM BKN080
      TEMPO 0411/0413 4SM -SHRA SCT050 BKN080
     FM041300 36004KT P6SM VCSH SCT050 BKN080=



000
FTUS42 KRAH 041116 AAA
TAFFAY
TAF AMD
KFAY 041116Z 0411/0506 35004KT P6SM BKN080
      TEMPO 0411/0413 4SM -SHRA SCT050 BKN080
     FM041300 36004KT P6SM VCSH SCT050 BKN080=



000
FTUS42 KRAH 041026 AAB
TAFRDU
TAF AMD
KRDU 041026Z 0410/0506 35003KT P6SM FEW005 SCT050 SCT080
      TEMPO 0410/0412 VRB02KT BKN005
     FM041400 34004KT P6SM VCSH SCT050 BKN080=



000
FTUS42 KRAH 040959 AAD
TAFRWI
TAF AMD
KRWI 040959Z 0410/0506 35004KT 5SM BR OVC003
     FM041300 35004KT 6SM BR OVC006
     FM041400 35004KT 6SM BR BKN012
     FM041500 35004KT P6SM VCSH SCT035 BKN070
      TEMPO 0415/0417 BKN025=



000
FTUS42 KRAH 040849 AAA
TAFRDU
TAF AMD
KRDU 040849Z 0409/0506 35003KT P6SM FEW005 FEW050 SCT090
      TEMPO 0410/0411 BKN005
     FM041400 34004KT P6SM VCSH SCT050 BKN080=



000
FTUS42 KRAH 040849 AAA
TAFRDU
TAF AMD
KRDU 040849Z 0409/0506 35003KT P6SM FEW005 FEW050 SCT090
      TEMPO 0410/0411 BKN005
     FM041400 34004KT P6SM VCSH SCT050 BKN080=



000
FTUS42 KRAH 040800 AAC
TAFRWI
TAF AMD
KRWI 040800Z 0408/0506 VRB02KT 6SM BR FEW006 SCT040 BKN080
      TEMPO 0408/0409 00000KT 1/4SM FG VV002
     FM040900 36004KT 6SM BR VCSH BKN006
     FM041300 36004KT P6SM VCSH BKN012 BKN070
     FM041500 35004KT P6SM VCSH SCT035 BKN070
      TEMPO 0415/0417 BKN025=



000
FTUS42 KRAH 040726 AAB
TAFRWI
TAF AMD
KRWI 040726Z 0407/0506 VRB02KT 6SM BR FEW006 SCT040 BKN080
      TEMPO 0407/0408 00000KT 1/4SM FG VV002
     FM040800 36004KT 6SM BR VCSH BKN006
     FM041300 36004KT P6SM VCSH BKN012 BKN070
     FM041500 35004KT P6SM VCSH SCT035 BKN070
      TEMPO 0415/0417 BKN025=



000
FTUS42 KRAH 040721 AAA
TAFRWI
TAF AMD
KRWI 040721Z 0407/0506 VRB02KT 6SM BR FEW006 SCT040 BKN080
      TEMPO 0407/0408 00000KT 1SM BR FEW080 SCT250
     FM040800 36004KT 6SM BR VCSH BKN006
     FM041300 36004KT P6SM VCSH BKN012 BKN070
     FM041500 35004KT P6SM VCSH SCT035 BKN070
      TEMPO 0415/0417 BKN025=



000
FTUS42 KRAH 040721 AAA
TAFRWI
TAF AMD
KRWI 040721Z 0407/0506 VRB02KT 6SM BR FEW006 SCT040 BKN080
      TEMPO 0407/0408 00000KT 1SM BR FEW080 SCT250
     FM040800 36004KT 6SM BR VCSH BKN006
     FM041300 36004KT P6SM VCSH BKN012 BKN070
     FM041500 35004KT P6SM VCSH SCT035 BKN070
      TEMPO 0415/0417 BKN025=



000
FTUS42 KRAH 040540
TAFINT
TAF
KINT 040540Z 0406/0506 36004KT P6SM VCSH BKN070 BKN250
     FM041800 24007KT P6SM VCSH BKN045 BKN070=



000
FTUS42 KRAH 040540
TAFRDU
TAF
KRDU 040540Z 0406/0506 VRB02KT 6SM BR FEW003 BKN040 BKN060
      TEMPO 0406/0408 2SM BR BKN003 BKN030
     FM040800 34004KT P6SM VCSH SCT040 BKN060=



000
FTUS42 KRAH 040540
TAFRWI
TAF
KRWI 040540Z 0406/0506 VRB02KT 6SM BR FEW006 SCT040 BKN080
      TEMPO 0407/0408 00000KT 2SM BR FEW080 SCT250
     FM040800 36004KT 6SM BR VCSH BKN006
     FM041300 36004KT P6SM VCSH BKN012 BKN070
     FM041500 35004KT P6SM VCSH SCT035 BKN070
      TEMPO 0415/0417 BKN025=



000
FTUS42 KRAH 040540
TAFFAY
TAF
KFAY 040540Z 0406/0506 VRB03KT P6SM SCT006 SCT018 BKN050
      TEMPO 0406/0408 00000KT 1 1/2SM BR BKN005
     FM041000 36004KT P6SM VCSH BKN040=



000
FTUS42 KRAH 040540
TAFINT
TAF
KINT 040540Z 0406/0506 36004KT P6SM VCSH BKN070 BKN250
     FM041800 24007KT P6SM VCSH BKN045 BKN070=



000
FTUS42 KRAH 040540
TAFRDU
TAF
KRDU 040540Z 0406/0506 VRB02KT 6SM BR FEW003 BKN040 BKN060
      TEMPO 0406/0408 2SM BR BKN003 BKN030
     FM040800 34004KT P6SM VCSH SCT040 BKN060=



000
FTUS42 KRAH 040540
TAFFAY
TAF
KFAY 040540Z 0406/0506 VRB03KT P6SM SCT006 SCT018 BKN050
      TEMPO 0406/0408 00000KT 1 1/2SM BR BKN005
     FM041000 36004KT P6SM VCSH BKN040=



000
FTUS42 KRAH 040540
TAFRWI
TAF
KRWI 040540Z 0406/0506 VRB02KT 6SM BR FEW006 SCT040 BKN080
      TEMPO 0407/0408 00000KT 2SM BR FEW080 SCT250
     FM040800 36004KT 6SM BR VCSH BKN006
     FM041300 36004KT P6SM VCSH BKN012 BKN070
     FM041500 35004KT P6SM VCSH SCT035 BKN070
      TEMPO 0415/0417 BKN025=



000
FTUS42 KRAH 040540
TAFGSO
TAF
KGSO 040540Z 0406/0506 36004KT P6SM VCSH BKN070 BKN250
     FM041800 24007KT P6SM VCSH BKN045 BKN070=



000
FTUS42 KRAH 040531 AAA
TAFGSO
TAF AMD
KGSO 040531Z 0406/0424 36004KT P6SM VCSH BKN070 BKN250
     FM041900 24007KT P6SM VCSH BKN045 BKN070=



000
FTUS42 KRAH 040531 AAA
TAFINT
TAF AMD
KINT 040531Z 0406/0424 36004KT P6SM VCSH BKN070 BKN250
     FM041900 24007KT P6SM VCSH BKN045 BKN070=



000
FTUS42 KRAH 040531 AAA
TAFINT
TAF AMD
KINT 040531Z 0406/0424 36004KT P6SM VCSH BKN070 BKN250
     FM041900 24007KT P6SM VCSH BKN045 BKN070=



000
FTUS42 KRAH 040531 AAA
TAFGSO
TAF AMD
KGSO 040531Z 0406/0424 36004KT P6SM VCSH BKN070 BKN250
     FM041900 24007KT P6SM VCSH BKN045 BKN070=



000
FTUS42 KRAH 040500 AAB
TAFRDU
TAF AMD
KRDU 040500Z 0405/0424 30005KT P6SM VCSH FEW005 SCT035 BKN200
      TEMPO 0405/0407 VRB03KT 2SM BR BKN003
     FM041200 29005KT P6SM SCT050=



000
FTUS42 KRAH 040415 AAB
TAFRWI
TAF AMD
KRWI 040415Z 0404/0424 VRB03KT 6SM BR VCTS FEW006 SCT020 BKN035CB
      TEMPO 0404/0405 3SM -SHRA BR SCT006 BKN020
     FM040500 30004KT P6SM VCSH SCT020 BKN050
     FM041500 29006KT P6SM SCT030=



000
FTUS42 KRAH 040415 AAB
TAFRWI
TAF AMD
KRWI 040415Z 0404/0424 VRB03KT 6SM BR VCTS FEW006 SCT020 BKN035CB
      TEMPO 0404/0405 3SM -SHRA BR SCT006 BKN020
     FM040500 30004KT P6SM VCSH SCT020 BKN050
     FM041500 29006KT P6SM SCT030=



000
FTUS42 KRAH 040413 AAA
TAFRDU
TAF AMD
KRDU 040413Z 0404/0424 VRB03KT P6SM VCTS SCT035CB BKN200
      TEMPO 0404/0405 5SM -SHRA SCT007 BKN050 OVC100
     FM040600 24003KT P6SM VCSH BKN050
     FM041200 29005KT P6SM SCT050=



000
FTUS42 KRAH 040408 AAA
TAFFAY
TAF AMD
KFAY 040408Z 0404/0424 VRB04KT P6SM VCSH FEW006 SCT035
      TEMPO 0404/0405 BKN005
     FM041000 31008KT P6SM SCT015 SCT050=



000
FTUS42 KRAH 040326 AAA
TAFRWI
TAF AMD
KRWI 040326Z 0403/0424 23008KT P6SM VCSH SCT035 BKN250
     FM040330 20005KT 5SM TSRA SCT030CB
     FM040400 30004KT P6SM VCSH SCT020 BKN050
     FM041500 29006KT P6SM SCT030=



000
FTUS42 KRAH 032331
TAFRDU
TAF
KRDU 032331Z 0400/0424 23008KT P6SM VCSH SCT035 BKN200
     FM040100 28003KT P6SM VCSH SCT035 SCT250
     FM041500 30007KT P6SM SCT050=



000
FTUS42 KRAH 032331
TAFFAY
TAF
KFAY 032331Z 0400/0424 24010KT P6SM VCTS SCT030CB SCT090
      TEMPO 0400/0401 27020G25KT 1 1/2SM TSRA SCT015 BKN025CB OVC080
     FM040300 26003KT P6SM VCSH BKN040
     FM041000 31008KT P6SM SCT015 SCT050=



000
FTUS42 KRAH 032331
TAFINT
TAF
KINT 032331Z 0400/0424 24005KT P6SM FEW040 SCT250
     FM040300 31005KT P6SM VCSH OVC050
     FM041500 30005KT P6SM SCT060=



000
FTUS42 KRAH 032331
TAFGSO
TAF
KGSO 032331Z 0400/0424 24005KT P6SM FEW040 SCT250
     FM040300 31005KT P6SM VCSH OVC050
     FM041500 30005KT P6SM SCT060=



000
FTUS42 KRAH 032331
TAFRWI
TAF
KRWI 032331Z 0400/0424 23008KT P6SM VCSH SCT035 BKN250
      TEMPO 0400/0402 27020G25KT 1 1/2SM TSRA SCT020 BKN035CB OVC080
     FM040400 30004KT P6SM VCSH SCT020 BKN050
     FM041500 29006KT P6SM SCT030=



000
FTUS42 KRAH 031923 AAA
TAFGSO
TAF AMD
KGSO 031923Z 0319/0418 24006KT P6SM VCTS SCT030CB BKN200
      TEMPO 0319/0321 29015G35KT 1SM -TSRA BR SCT020CB BKN035
     FM040000 24005KT P6SM FEW040 SCT250
     FM040300 31005KT P6SM VCSH OVC050
     FM041500 30005KT P6SM SCT060=



000
FTUS42 KRAH 031923 AAA
TAFGSO
TAF AMD
KGSO 031923Z 0319/0418 24006KT P6SM VCTS SCT030CB BKN200
      TEMPO 0319/0321 29015G35KT 1SM -TSRA BR SCT020CB BKN035
     FM040000 24005KT P6SM FEW040 SCT250
     FM040300 31005KT P6SM VCSH OVC050
     FM041500 30005KT P6SM SCT060=



000
FTUS42 KRAH 031906 AAA
TAFINT
TAF AMD
KINT 031906Z 0319/0418 24006KT P6SM VCTS SCT030CB BKN200
      TEMPO 0319/0322 27015G30KT 2SM -TSRA SCT020CB BKN035
     FM040000 24005KT P6SM FEW040 SCT250
     FM040300 31005KT P6SM VCSH OVC050
     FM041500 30005KT P6SM SCT060=



000
FTUS42 KRAH 031906 AAA
TAFINT
TAF AMD
KINT 031906Z 0319/0418 24006KT P6SM VCTS SCT030CB BKN200
      TEMPO 0319/0322 27015G30KT 2SM -TSRA SCT020CB BKN035
     FM040000 24005KT P6SM FEW040 SCT250
     FM040300 31005KT P6SM VCSH OVC050
     FM041500 30005KT P6SM SCT060=



    US Dept of Commerce
    National Oceanic and Atmospheric Administration
    National Weather Service
    1325 East West Highway
    Silver Spring, MD 20910
    Page Author: NWS Internet Services Team
Disclaimer
Information Quality
Credits
Glossary
Privacy Policy
Freedom of Information Act (FOIA)
About Us
Career Opportunities